No2 Toyomaru — JD2874 — position and weather

sailwx.info

Track history (hours):
 
Tides and Currents Weather Stations Pressure Air Temp Water Temp Dewpoint Dewpoint Depression Visibility Wind Speed Wind Dir Waves Ship Positions

No2 Toyomaru

Last reported at 2018-Jun-21 20:01 UTC. Time now 2018-Jun-22 05:35 UTC.
Position N 35°34' E 140°00'.

Length 124 m; draft 6.5 m.

Type: Cargo ship. MMSI: 431000859.

Date/timePositionNaut miles runAvg speedWind from/ knotsBaromVisibWave heightAir tempDewpointWater temp
2018-Jun-21 20:01N 35°34' E 140°00'015.8
2018-Jun-21 19:59N 35°34' E 140°00'816.7
2018-Jun-21 19:30N 35°29' E 139°52'714.6
2018-Jun-21 19:00N 35°23' E 139°46'611.3
2018-Jun-21 18:30N 35°18' E 139°45'611.2
2018-Jun-21 18:00N 35°12' E 139°47'815.2
2018-Jun-21 17:29N 35°05' E 139°45'24110.9
2018-Jun-20 19:24N 33°39' E 135°12'917.0
2018-Jun-20 18:52N 33°46' E 135°05'616.8
2018-Jun-20 18:31N 33°51' E 135°01'816.7
2018-Jun-20 18:00N 33°57' E 134°55'917.3
2018-Jun-20 17:30N 34°04' E 134°48'917.2
2018-Jun-20 17:00N 34°11' E 134°42'916.5
2018-Jun-20 16:28N 34°17' E 134°34'817.6
2018-Jun-20 16:01N 34°20' E 134°25'6 0.2
2018-Jun-19 04:31N 34°23' E 134°18'218.0
2018-Jun-19 04:25N 34°22' E 134°21'818.3
2018-Jun-19 04:00N 34°20' E 134°29'1117.7
2018-Jun-19 03:25N 34°13' E 134°39'918.1
2018-Jun-19 02:55N 34°06' E 134°46'817.9
2018-Jun-19 02:30N 34°01' E 134°52'918.3
2018-Jun-19 02:00N 33°53' E 134°58'1018.9
2018-Jun-19 01:28N 33°45' E 135°06'23715.4
2018-Jun-18 10:06N 35°04' E 139°37'218.1
2018-Jun-18 09:58N 35°05' E 139°39'817.3
2018-Jun-18 09:30N 35°11' E 139°45'612.1
2018-Jun-18 09:00N 35°17' E 139°45'714.0
2018-Jun-18 08:30N 35°24' E 139°43'917.1
2018-Jun-18 08:01N 35°29' E 139°51'14 0.4
2018-Jun-17 00:01N 35°35' E 140°06'0 0.0
2018-Jun-17 00:01N 35°35' E 140°06'713.2
2018-Jun-16 23:31N 35°33' E 139°59'816.6
2018-Jun-16 23:00N 35°27' E 139°51'713.9
2018-Jun-16 22:30N 35°22' E 139°45'611.2
2018-Jun-16 22:00N 35°17' E 139°46'611.8
2018-Jun-16 21:31N 35°11' E 139°47'816.2
2018-Jun-16 20:59N 35°03' E 139°41'238 9.3
2018-Jun-15 19:30N 33°38' E 135°12'918.0
2018-Jun-15 19:00N 33°45' E 135°05'917.9
2018-Jun-15 18:31N 33°52' E 134°59'917.9
2018-Jun-15 18:00N 33°59' E 134°52'917.6
2018-Jun-15 17:30N 34°07' E 134°46'918.4
2018-Jun-15 17:01N 34°14' E 134°39'816.8
2018-Jun-15 16:30N 34°18' E 134°30'917.0
2018-Jun-15 16:00N 34°21' E 134°21'8 0.2
2018-Jun-14 05:24N 34°25' E 134°12'716.1
2018-Jun-14 04:58N 34°22' E 134°20'817.1
2018-Jun-14 04:31N 34°19' E 134°29'1016.1
2018-Jun-14 03:53N 34°14' E 134°39'916.2
2018-Jun-14 03:19N 34°07' E 134°46'516.7
2018-Jun-14 03:00N 34°02' E 134°49'816.7
2018-Jun-14 02:30N 33°56' E 134°55'816.3
2018-Jun-14 02:00N 33°49' E 135°01'916.1
2018-Jun-14 01:29N 33°43' E 135°09'24015.7
2018-Jun-13 10:14N 35°05' E 139°41'416.3
2018-Jun-13 10:00N 35°08' E 139°44'714.5
2018-Jun-13 09:30N 35°15' E 139°46'713.3
2018-Jun-13 09:01N 35°21' E 139°42'815.4
2018-Jun-13 08:30N 35°27' E 139°48'917.0
2018-Jun-13 07:59N 35°33' E 139°56'7 0.4
2018-Jun-12 13:14N 35°35' E 140°05'414.7
2018-Jun-12 12:59N 35°34' E 140°01'816.6
2018-Jun-12 12:30N 35°29' E 139°53'815.4
2018-Jun-12 12:01N 35°24' E 139°46'612.3
2018-Jun-12 11:30N 35°18' E 139°45'612.0
2018-Jun-12 11:00N 35°12' E 139°47'  
Track history (hours):
 
Tides and Currents Weather Stations Pressure Air Temp Water Temp Dewpoint Dewpoint Depression Visibility Wind Speed Wind Dir Waves Ship Positions

No2 Toyomaru

Last reported at 2018-Jun-21 20:01 UTC. Time now 2018-Jun-22 05:35 UTC.
Position N 35°34' E 140°00'.

Length 124 m; draft 6.5 m.

Type: Cargo ship. MMSI: 431000859.

Date/timePositionNaut miles runAvg speedWind from/ knotsBaromVisibWave heightAir tempDewpointWater temp
2018-Jun-21 20:01N 35°34' E 140°00'015.8
2018-Jun-21 19:59N 35°34' E 140°00'816.7
2018-Jun-21 19:30N 35°29' E 139°52'714.6
2018-Jun-21 19:00N 35°23' E 139°46'611.3
2018-Jun-21 18:30N 35°18' E 139°45'611.2
2018-Jun-21 18:00N 35°12' E 139°47'815.2
2018-Jun-21 17:29N 35°05' E 139°45'24110.9
2018-Jun-20 19:24N 33°39' E 135°12'917.0
2018-Jun-20 18:52N 33°46' E 135°05'616.8
2018-Jun-20 18:31N 33°51' E 135°01'816.7
2018-Jun-20 18:00N 33°57' E 134°55'917.3
2018-Jun-20 17:30N 34°04' E 134°48'917.2
2018-Jun-20 17:00N 34°11' E 134°42'916.5
2018-Jun-20 16:28N 34°17' E 134°34'817.6
2018-Jun-20 16:01N 34°20' E 134°25'6 0.2
2018-Jun-19 04:31N 34°23' E 134°18'218.0
2018-Jun-19 04:25N 34°22' E 134°21'818.3
2018-Jun-19 04:00N 34°20' E 134°29'1117.7
2018-Jun-19 03:25N 34°13' E 134°39'918.1
2018-Jun-19 02:55N 34°06' E 134°46'817.9
2018-Jun-19 02:30N 34°01' E 134°52'918.3
2018-Jun-19 02:00N 33°53' E 134°58'1018.9
2018-Jun-19 01:28N 33°45' E 135°06'23715.4
2018-Jun-18 10:06N 35°04' E 139°37'218.1
2018-Jun-18 09:58N 35°05' E 139°39'817.3
2018-Jun-18 09:30N 35°11' E 139°45'612.1
2018-Jun-18 09:00N 35°17' E 139°45'714.0
2018-Jun-18 08:30N 35°24' E 139°43'917.1
2018-Jun-18 08:01N 35°29' E 139°51'14 0.4
2018-Jun-17 00:01N 35°35' E 140°06'0 0.0
2018-Jun-17 00:01N 35°35' E 140°06'713.2
2018-Jun-16 23:31N 35°33' E 139°59'816.6
2018-Jun-16 23:00N 35°27' E 139°51'713.9
2018-Jun-16 22:30N 35°22' E 139°45'611.2
2018-Jun-16 22:00N 35°17' E 139°46'611.8
2018-Jun-16 21:31N 35°11' E 139°47'816.2
2018-Jun-16 20:59N 35°03' E 139°41'238 9.3
2018-Jun-15 19:30N 33°38' E 135°12'918.0
2018-Jun-15 19:00N 33°45' E 135°05'917.9
2018-Jun-15 18:31N 33°52' E 134°59'917.9
2018-Jun-15 18:00N 33°59' E 134°52'917.6
2018-Jun-15 17:30N 34°07' E 134°46'918.4
2018-Jun-15 17:01N 34°14' E 134°39'816.8
2018-Jun-15 16:30N 34°18' E 134°30'917.0
2018-Jun-15 16:00N 34°21' E 134°21'8 0.2
2018-Jun-14 05:24N 34°25' E 134°12'716.1
2018-Jun-14 04:58N 34°22' E 134°20'817.1
2018-Jun-14 04:31N 34°19' E 134°29'1016.1
2018-Jun-14 03:53N 34°14' E 134°39'916.2
2018-Jun-14 03:19N 34°07' E 134°46'516.7
2018-Jun-14 03:00N 34°02' E 134°49'816.7
2018-Jun-14 02:30N 33°56' E 134°55'816.3
2018-Jun-14 02:00N 33°49' E 135°01'916.1
2018-Jun-14 01:29N 33°43' E 135°09'24015.7
2018-Jun-13 10:14N 35°05' E 139°41'416.3
2018-Jun-13 10:00N 35°08' E 139°44'714.5
2018-Jun-13 09:30N 35°15' E 139°46'713.3
2018-Jun-13 09:01N 35°21' E 139°42'815.4
2018-Jun-13 08:30N 35°27' E 139°48'917.0
2018-Jun-13 07:59N 35°33' E 139°56'7 0.4
2018-Jun-12 13:14N 35°35' E 140°05'414.7
2018-Jun-12 12:59N 35°34' E 140°01'816.6
2018-Jun-12 12:30N 35°29' E 139°53'815.4
2018-Jun-12 12:01N 35°24' E 139°46'612.3
2018-Jun-12 11:30N 35°18' E 139°45'612.0
2018-Jun-12 11:00N 35°12' E 139°47'  

Dump ship's entire track history